createdAt,value
2018-12-02T00:00:22.052Z,10.82
2018-12-02T00:02:50.208Z,8.73
2018-12-02T00:05:18.453Z,9.90
2018-12-02T00:07:46.563Z,10.50
2018-12-02T00:10:15.702Z,10.28
2018-12-02T00:12:43.793Z,9.38
2018-12-02T00:15:15.762Z,10.53
2018-12-02T00:17:43.931Z,9.40
2018-12-02T00:20:13.963Z,12.20
2018-12-02T00:22:42.069Z,10.08
2018-12-02T00:25:11.126Z,10.35
2018-12-02T00:27:39.310Z,9.33
2018-12-02T00:30:10.283Z,12.82
2018-12-02T00:32:38.430Z,11.70
2018-12-02T00:35:08.111Z,10.23
2018-12-02T00:37:36.218Z,10.20
2018-12-02T00:40:20.994Z,11.08
2018-12-02T00:42:54.206Z,8.93
2018-12-02T00:45:23.441Z,10.82
2018-12-02T00:47:51.531Z,9.63
2018-12-02T00:50:19.683Z,9.63
2018-12-02T00:52:50.014Z,9.80
2018-12-02T00:55:20.314Z,9.48
2018-12-02T00:57:48.554Z,9.13
2018-12-02T01:00:16.989Z,9.03
2018-12-02T01:02:46.036Z,11.15
2018-12-02T01:05:16.126Z,11.93
2018-12-02T01:07:44.198Z,9.57
2018-12-02T01:10:16.431Z,10.40
2018-12-02T01:12:44.974Z,7.00
2018-12-02T01:15:14.236Z,9.30
2018-12-02T01:17:42.366Z,8.80
2018-12-02T01:20:12.416Z,7.33
2018-12-02T01:22:40.491Z,7.45
2018-12-02T01:25:10.589Z,8.20
2018-12-02T01:27:38.675Z,9.75
2018-12-02T01:30:10.639Z,8.63
2018-12-02T01:32:39.019Z,11.43
2018-12-02T01:35:07.225Z,12.03
2018-12-02T01:37:35.422Z,6.97
2018-12-02T01:40:03.923Z,9.28
2018-12-02T01:42:31.999Z,7.25
2018-12-02T01:45:00.067Z,7.20
2018-12-02T01:47:28.131Z,8.00
2018-12-02T01:49:56.372Z,8.20
2018-12-02T01:52:24.459Z,6.70
2018-12-02T01:54:52.700Z,6.55
2018-12-02T01:57:20.785Z,7.17
2018-12-02T01:59:48.846Z,5.50
2018-12-02T02:02:16.905Z,7.85
2018-12-02T02:04:45.022Z,8.10
2018-12-02T02:07:13.139Z,7.55
2018-12-02T02:09:41.374Z,6.03
2018-12-02T02:12:09.475Z,7.37
2018-12-02T02:14:37.654Z,7.93
2018-12-02T02:17:06.619Z,7.53
2018-12-02T02:19:34.703Z,5.92
2018-12-02T02:22:02.805Z,9.88
2018-12-02T02:24:30.891Z,7.15
2018-12-02T02:26:58.982Z,10.13
2018-12-02T02:29:27.095Z,8.28
2018-12-02T02:31:55.200Z,7.80
2018-12-02T02:34:23.319Z,10.93
2018-12-02T02:36:51.498Z,9.77
2018-12-02T02:39:19.589Z,9.08
2018-12-02T02:41:47.699Z,8.85
2018-12-02T02:44:15.824Z,8.75
2018-12-02T02:46:44.007Z,8.65
2018-12-02T02:49:12.110Z,8.28
2018-12-02T02:51:40.286Z,8.47
2018-12-02T02:54:08.374Z,9.70
2018-12-02T02:56:36.479Z,7.28
2018-12-02T02:59:05.091Z,8.73
2018-12-02T03:01:33.266Z,8.25
2018-12-02T03:04:01.372Z,7.87
2018-12-02T03:06:29.535Z,7.47
2018-12-02T03:08:57.689Z,8.15
2018-12-02T03:11:25.796Z,6.80
2018-12-02T03:13:53.962Z,6.27
2018-12-02T03:16:22.161Z,8.63
2018-12-02T03:18:50.283Z,8.30
2018-12-02T03:21:18.518Z,6.42
2018-12-02T03:23:46.616Z,8.43
2018-12-02T03:26:14.706Z,7.35
2018-12-02T03:28:42.820Z,7.20
2018-12-02T03:31:10.969Z,6.25
2018-12-02T03:33:39.097Z,7.15
2018-12-02T03:36:07.286Z,6.40
2018-12-02T03:38:35.386Z,6.70
2018-12-02T03:41:03.507Z,6.33
2018-12-02T03:43:31.640Z,8.27
2018-12-02T03:45:59.743Z,9.88
2018-12-02T03:48:27.854Z,8.45
2018-12-02T03:50:56.006Z,9.10
2018-12-02T03:53:24.131Z,8.60
2018-12-02T03:55:52.243Z,9.65
2018-12-02T03:58:20.335Z,7.67
2018-12-02T04:00:48.454Z,10.23
2018-12-02T04:03:16.554Z,7.58
2018-12-02T04:05:44.715Z,12.47
2018-12-02T04:08:12.871Z,10.10
2018-12-02T04:10:41.007Z,7.30
2018-12-02T04:13:09.153Z,9.48
2018-12-02T04:15:37.231Z,9.98
2018-12-02T04:18:05.327Z,8.77
2018-12-02T04:20:33.441Z,10.15
2018-12-02T04:23:01.534Z,9.38
2018-12-02T04:25:29.639Z,8.45
2018-12-02T04:27:57.855Z,8.60
2018-12-02T04:30:26.006Z,11.85
2018-12-02T04:32:54.327Z,9.07
2018-12-02T04:35:24.220Z,7.87
2018-12-02T04:37:52.331Z,9.80
2018-12-02T04:40:20.422Z,10.30
2018-12-02T04:42:48.618Z,8.40
2018-12-02T04:45:17.602Z,9.65
2018-12-02T04:47:45.757Z,8.80
2018-12-02T04:50:21.649Z,9.83
2018-12-02T04:52:49.707Z,8.95
2018-12-02T04:55:17.879Z,9.77
2018-12-02T04:57:45.982Z,9.38
2018-12-02T05:00:17.651Z,9.95
2018-12-02T05:02:46.846Z,8.45
2018-12-02T05:05:16.360Z,10.60
2018-12-02T05:07:44.494Z,8.53
2018-12-02T05:10:15.561Z,6.93
2018-12-02T05:12:43.873Z,7.20
2018-12-02T05:15:12.851Z,12.07
2018-12-02T05:17:41.044Z,8.28
2018-12-02T05:20:11.242Z,7.37
2018-12-02T05:22:39.402Z,8.57
2018-12-02T05:25:09.023Z,8.35
2018-12-02T05:27:37.163Z,8.75
2018-12-02T05:30:09.980Z,9.80
2018-12-02T05:32:38.173Z,7.70
2018-12-02T05:35:06.747Z,10.73
2018-12-02T05:37:34.855Z,8.13
2018-12-02T05:40:03.523Z,9.60
2018-12-02T05:42:33.363Z,8.20
2018-12-02T05:45:01.760Z,11.83
2018-12-02T05:47:29.971Z,10.72
2018-12-02T05:49:58.092Z,11.73
2018-12-02T05:52:26.265Z,11.90
2018-12-02T05:54:54.438Z,11.25
2018-12-02T05:57:22.563Z,15.55
2018-12-02T05:59:50.699Z,13.22
2018-12-02T06:02:18.850Z,13.43
2018-12-02T06:04:46.962Z,13.72
2018-12-02T06:07:15.064Z,13.40
2018-12-02T06:09:43.148Z,15.67
2018-12-02T06:12:11.227Z,16.10
2018-12-02T06:14:39.386Z,12.55
2018-12-02T06:17:07.474Z,13.72
2018-12-02T06:19:35.594Z,13.72
2018-12-02T06:22:03.719Z,15.43
2018-12-02T06:24:31.895Z,14.55
2018-12-02T06:26:59.998Z,12.87
2018-12-02T06:29:28.114Z,14.60
2018-12-02T06:31:56.187Z,12.10
2018-12-02T06:34:24.379Z,16.48
2018-12-02T06:36:52.508Z,12.55
2018-12-02T06:39:20.603Z,13.20
2018-12-02T06:41:48.694Z,12.35
2018-12-02T06:44:16.870Z,13.03
2018-12-02T06:46:44.961Z,13.40
2018-12-02T06:49:13.146Z,11.08
2018-12-02T06:51:41.336Z,12.90
2018-12-02T06:54:09.455Z,11.85
2018-12-02T06:56:37.522Z,13.72
2018-12-02T06:59:16.762Z,13.87
2018-12-02T07:02:51.970Z,12.68
2018-12-02T07:05:22.978Z,11.45
2018-12-02T07:07:52.206Z,11.20
2018-12-02T07:10:20.320Z,10.35
2018-12-02T07:12:48.439Z,13.13
2018-12-02T07:15:16.591Z,12.78
2018-12-02T07:17:44.699Z,12.70
2018-12-02T07:20:12.838Z,12.10
2018-12-02T07:22:40.919Z,10.05
2018-12-02T07:25:09.047Z,12.15
2018-12-02T07:27:37.209Z,9.75
2018-12-02T07:30:07.605Z,9.40
2018-12-02T07:32:35.820Z,9.43
2018-12-02T07:35:03.927Z,9.10
2018-12-02T07:37:33.064Z,7.60
2018-12-02T07:40:21.682Z,8.75
2018-12-02T07:42:49.927Z,7.50
2018-12-02T07:45:18.138Z,7.17
2018-12-02T07:47:46.237Z,8.05
2018-12-02T07:50:14.355Z,7.10
2018-12-02T07:52:42.443Z,7.00
2018-12-02T07:55:10.675Z,8.15
2018-12-02T07:57:38.795Z,9.75
2018-12-02T08:00:14.936Z,8.98
2018-12-02T08:02:43.103Z,7.37
2018-12-02T08:05:13.585Z,6.70
2018-12-02T08:07:42.330Z,7.45
2018-12-02T08:10:15.359Z,8.15
2018-12-02T08:12:43.678Z,7.28
2018-12-02T08:15:16.998Z,7.28
2018-12-02T08:17:45.148Z,7.75
2018-12-02T08:20:14.418Z,8.95
2018-12-02T08:22:42.624Z,7.87
2018-12-02T08:25:16.954Z,9.15
2018-12-02T08:27:45.052Z,8.70
2018-12-02T08:30:22.863Z,10.13
2018-12-02T08:32:50.933Z,9.48
2018-12-02T08:35:20.324Z,11.20
2018-12-02T08:37:49.992Z,10.38
2018-12-02T08:40:18.123Z,11.67
2018-12-02T08:42:46.272Z,12.07
2018-12-02T08:45:15.506Z,11.10
2018-12-02T08:47:44.184Z,12.20
2018-12-02T08:50:15.330Z,12.78
2018-12-02T08:52:45.118Z,11.40
2018-12-02T08:55:14.426Z,10.90
2018-12-02T08:57:42.550Z,11.93
2018-12-02T09:00:14.522Z,9.93
2018-12-02T09:02:43.529Z,8.83
2018-12-02T09:05:12.718Z,9.20
2018-12-02T09:07:40.856Z,9.03
2018-12-02T09:10:12.450Z,10.48
2018-12-02T09:12:40.556Z,10.93
2018-12-02T09:15:09.829Z,11.70
2018-12-02T09:17:37.938Z,10.93
2018-12-02T09:20:19.246Z,14.00
2018-12-02T09:22:47.365Z,10.68
2018-12-02T09:25:15.481Z,9.00
2018-12-02T09:27:43.622Z,8.03
2018-12-02T09:30:14.895Z,7.00
2018-12-02T09:32:43.131Z,6.22
2018-12-02T09:35:11.418Z,6.90
2018-12-02T09:37:39.523Z,5.93
2018-12-02T09:40:11.641Z,5.03
2018-12-02T09:42:40.303Z,6.72
2018-12-02T09:45:12.739Z,7.10
2018-12-02T09:47:40.915Z,5.75
2018-12-02T09:50:11.461Z,4.55
2018-12-02T09:52:39.591Z,5.00
2018-12-02T09:55:09.918Z,5.17
2018-12-02T09:57:38.263Z,4.80
2018-12-02T10:00:13.587Z,4.23
2018-12-02T10:02:41.674Z,4.05
2018-12-02T10:05:09.799Z,4.45
2018-12-02T10:07:37.987Z,5.90
2018-12-02T10:10:13.500Z,5.95
2018-12-02T10:12:42.719Z,7.50
2018-12-02T10:15:12.016Z,4.47
2018-12-02T10:17:40.338Z,3.83
2018-12-02T10:20:10.635Z,4.00
2018-12-02T10:22:38.771Z,4.05
2018-12-02T10:25:09.013Z,3.92
2018-12-02T10:27:37.230Z,4.10
2018-12-02T10:30:11.267Z,3.90
2018-12-02T10:32:39.415Z,4.20
2018-12-02T10:35:07.560Z,3.90
2018-12-02T10:37:35.648Z,4.12
2018-12-02T10:40:04.295Z,3.70
2018-12-02T10:42:32.567Z,5.97
2018-12-02T10:45:00.663Z,4.03
2018-12-02T10:47:28.800Z,5.22
2018-12-02T10:49:56.939Z,5.42
2018-12-02T10:52:25.074Z,4.50
2018-12-02T10:54:53.147Z,4.25
2018-12-02T10:57:21.229Z,4.40
2018-12-02T10:59:49.426Z,3.80
2018-12-02T11:02:17.587Z,3.92
2018-12-02T11:04:45.691Z,3.25
2018-12-02T11:07:13.847Z,3.22
2018-12-02T11:09:41.962Z,3.58
2018-12-02T11:12:10.070Z,3.00
2018-12-02T11:14:38.158Z,3.33
2018-12-02T11:17:06.323Z,3.42
2018-12-02T11:19:34.391Z,3.50
2018-12-02T11:22:03.200Z,3.67
2018-12-02T11:24:31.480Z,3.90
2018-12-02T11:26:59.591Z,4.65
2018-12-02T11:29:27.723Z,2.90
2018-12-02T11:31:55.927Z,3.22
2018-12-02T11:34:24.226Z,3.60
2018-12-02T11:36:52.347Z,3.40
2018-12-02T11:39:20.574Z,3.00
2018-12-02T11:41:48.691Z,3.42
2018-12-02T11:44:16.775Z,3.05
2018-12-02T11:46:44.880Z,3.10
2018-12-02T11:49:12.967Z,3.70
2018-12-02T11:51:41.139Z,3.45
2018-12-02T11:54:09.305Z,3.30
2018-12-02T11:56:37.422Z,3.42
2018-12-02T11:59:05.518Z,3.60
2018-12-02T12:01:33.636Z,3.50
2018-12-02T12:04:01.731Z,4.13
2018-12-02T12:06:29.810Z,3.90
2018-12-02T12:08:57.931Z,3.60
2018-12-02T12:11:26.091Z,3.17
2018-12-02T12:13:54.238Z,3.20
2018-12-02T12:16:22.434Z,2.90
2018-12-02T12:18:50.593Z,2.80
2018-12-02T12:21:18.882Z,2.27
2018-12-02T12:23:46.998Z,2.30
2018-12-02T12:26:15.143Z,2.70
2018-12-02T12:28:43.254Z,2.43
2018-12-02T12:31:11.383Z,2.55
2018-12-02T12:33:39.483Z,2.00
2018-12-02T12:36:07.591Z,2.10
2018-12-02T12:38:35.703Z,1.95
2018-12-02T12:41:03.846Z,2.12
2018-12-02T12:43:33.975Z,2.33
2018-12-02T12:46:02.587Z,2.00
2018-12-02T12:48:30.712Z,2.50
2018-12-02T12:50:58.819Z,1.90
2018-12-02T12:53:26.926Z,1.90
2018-12-02T12:55:55.087Z,2.05
2018-12-02T12:58:23.186Z,2.08
2018-12-02T13:00:51.373Z,1.87
2018-12-02T13:03:19.464Z,1.70
2018-12-02T13:05:47.816Z,1.67
2018-12-02T13:08:16.038Z,1.47
2018-12-02T13:10:44.163Z,1.62
2018-12-02T13:13:12.270Z,1.90
2018-12-02T13:15:40.458Z,1.60
2018-12-02T13:18:10.342Z,1.85
2018-12-02T13:20:46.088Z,1.65
2018-12-02T13:23:14.175Z,1.70
2018-12-02T13:25:42.246Z,1.62
2018-12-02T13:28:10.411Z,1.75
2018-12-02T13:30:38.484Z,1.60
2018-12-02T13:33:07.327Z,1.60
2018-12-02T13:35:36.156Z,2.07
2018-12-02T13:38:04.358Z,1.70
2018-12-02T13:40:32.444Z,1.62
2018-12-02T13:43:32.973Z,1.75
2018-12-02T13:46:01.043Z,2.22
2018-12-02T13:48:29.131Z,1.70
2018-12-02T13:50:57.247Z,1.70
2018-12-02T13:53:25.338Z,1.87
2018-12-02T13:55:53.771Z,1.37
2018-12-02T13:58:21.923Z,1.42
2018-12-02T14:00:50.026Z,1.50
2018-12-02T14:03:18.148Z,1.40
2018-12-02T14:05:47.131Z,1.30
2018-12-02T14:08:15.322Z,1.55
2018-12-02T14:10:44.057Z,2.00
2018-12-02T14:13:24.606Z,1.45
2018-12-02T14:16:08.523Z,1.35
2018-12-02T14:18:38.919Z,1.32
2018-12-02T14:21:07.171Z,1.50
2018-12-02T14:23:36.092Z,1.95
2018-12-02T14:26:08.608Z,1.70
2018-12-02T14:28:42.850Z,1.37
2018-12-02T14:31:11.075Z,1.40
2018-12-02T14:33:39.175Z,1.20
2018-12-02T14:36:07.303Z,1.00
2018-12-02T14:38:35.380Z,1.00
2018-12-02T14:41:03.635Z,1.10
2018-12-02T14:43:31.726Z,1.30
2018-12-02T14:45:59.824Z,1.50
2018-12-02T14:48:27.919Z,1.70
2018-12-02T14:50:56.056Z,2.00
2018-12-02T14:53:24.147Z,3.12
2018-12-02T14:55:52.254Z,2.65
2018-12-02T14:58:20.382Z,1.90
2018-12-02T15:00:48.460Z,1.90
2018-12-02T15:03:16.545Z,1.50
2018-12-02T15:05:44.679Z,1.15
2018-12-02T15:08:12.809Z,1.40
2018-12-02T15:10:40.971Z,1.30
2018-12-02T15:13:09.067Z,1.20
2018-12-02T15:15:37.196Z,1.50
2018-12-02T15:18:05.686Z,1.50
2018-12-02T15:20:33.845Z,1.37
2018-12-02T15:23:01.967Z,1.20
2018-12-02T15:25:30.093Z,1.77
2018-12-02T15:27:58.218Z,1.20
2018-12-02T15:30:26.343Z,1.57
2018-12-02T15:32:54.505Z,1.90
2018-12-02T15:35:22.618Z,2.00
2018-12-02T15:37:50.752Z,2.05
2018-12-02T15:40:18.827Z,1.80
2018-12-02T15:42:51.876Z,1.90
2018-12-02T15:45:20.982Z,1.60
2018-12-02T15:47:49.110Z,1.70
2018-12-02T15:50:18.493Z,2.10
2018-12-02T15:52:46.821Z,1.90
2018-12-02T15:55:23.440Z,1.80
2018-12-02T15:57:51.650Z,1.90
2018-12-02T16:00:36.019Z,1.97
2018-12-02T16:03:04.345Z,2.12
2018-12-02T16:05:32.839Z,2.50
2018-12-02T16:08:01.039Z,2.70
2018-12-02T16:10:29.199Z,3.03
2018-12-02T16:12:58.020Z,2.47
2018-12-02T16:15:34.614Z,2.15
2018-12-02T16:18:03.137Z,2.50
2018-12-02T16:20:41.439Z,2.60
2018-12-02T16:23:09.563Z,2.90
2018-12-02T16:25:37.732Z,2.97
2018-12-02T16:28:05.855Z,2.87
2018-12-02T16:30:33.967Z,2.70
2018-12-02T16:33:02.081Z,2.73
2018-12-02T16:35:30.162Z,3.55
2018-12-02T16:37:58.251Z,4.30
2018-12-02T16:40:26.466Z,3.55
2018-12-02T16:42:56.631Z,3.95
2018-12-02T16:45:24.794Z,3.62
2018-12-02T16:47:54.102Z,4.20
2018-12-02T16:50:35.510Z,3.47
2018-12-02T16:53:12.529Z,2.72
2018-12-02T16:55:52.070Z,2.83
2018-12-02T16:58:26.131Z,2.95
2018-12-02T17:01:09.255Z,3.00
2018-12-02T17:03:37.366Z,2.70
2018-12-02T17:06:05.770Z,2.80
2018-12-02T17:08:33.928Z,2.87
2018-12-02T17:11:02.167Z,3.50
2018-12-02T17:13:31.391Z,3.22
2018-12-02T17:16:00.374Z,3.10
2018-12-02T17:18:28.462Z,2.90
2018-12-02T17:20:56.582Z,3.00
2018-12-02T17:23:24.693Z,3.07
2018-12-02T17:25:52.797Z,3.10
2018-12-02T17:28:20.919Z,2.87
2018-12-02T17:30:53.417Z,2.83
2018-12-02T17:33:21.575Z,3.62
2018-12-02T17:35:49.695Z,4.85
2018-12-02T17:38:18.356Z,3.80
2018-12-02T17:40:46.502Z,4.90
2018-12-02T17:43:14.608Z,4.40
2018-12-02T17:45:42.837Z,4.00
2018-12-02T17:48:10.955Z,3.70
2018-12-02T17:50:39.167Z,3.87
2018-12-02T17:53:09.547Z,4.97
2018-12-02T17:55:37.757Z,4.25
2018-12-02T17:58:05.914Z,4.55
2018-12-02T18:00:34.083Z,6.08
2018-12-02T18:03:02.947Z,5.17
2018-12-02T18:05:36.036Z,5.37
2018-12-02T18:08:04.139Z,6.17
2018-12-02T18:10:32.283Z,5.22
2018-12-02T18:13:00.448Z,7.33
2018-12-02T18:15:28.575Z,5.20
2018-12-02T18:17:56.762Z,6.12
2018-12-02T18:20:24.903Z,8.08
2018-12-02T18:22:53.220Z,7.43
2018-12-02T18:25:21.304Z,7.30
2018-12-02T18:27:49.543Z,5.72
2018-12-02T18:30:21.795Z,5.53
2018-12-02T18:32:52.922Z,6.17
2018-12-02T18:35:31.503Z,5.50
2018-12-02T18:38:04.492Z,5.97
2018-12-02T18:40:33.568Z,4.60
2018-12-02T18:43:01.732Z,4.27
2018-12-02T18:45:30.587Z,5.55
2018-12-02T18:47:59.718Z,5.12
2018-12-02T18:50:27.904Z,6.07
2018-12-02T18:52:56.444Z,5.73
2018-12-02T18:55:24.710Z,4.70
2018-12-02T18:57:52.786Z,4.50
2018-12-02T19:00:26.336Z,5.22
2018-12-02T19:02:56.014Z,4.42
2018-12-02T19:05:24.113Z,4.40
2018-12-02T19:07:52.447Z,4.30
2018-12-02T19:10:23.690Z,4.27
2018-12-02T19:12:52.044Z,4.60
2018-12-02T19:15:20.171Z,4.55
2018-12-02T19:17:48.493Z,4.20
2018-12-02T19:20:20.004Z,4.30
2018-12-02T19:22:49.308Z,4.00
2018-12-02T19:25:19.721Z,4.10
2018-12-02T19:27:48.019Z,4.75
2018-12-02T19:30:16.793Z,3.90
2018-12-02T19:32:45.474Z,3.90
2018-12-02T19:35:22.427Z,4.20
2018-12-02T19:37:52.277Z,3.80
2018-12-02T19:40:20.423Z,4.10
2018-12-02T19:42:48.602Z,3.87
2018-12-02T19:45:18.926Z,5.03
2018-12-02T19:47:47.126Z,4.00
2018-12-02T19:50:17.547Z,4.58
2018-12-02T19:52:45.863Z,3.75
2018-12-02T19:55:14.167Z,4.17
2018-12-02T19:57:46.679Z,4.33
2018-12-02T20:00:21.412Z,4.15
2018-12-02T20:02:49.687Z,4.40
2018-12-02T20:05:17.821Z,4.33
2018-12-02T20:07:48.577Z,4.33
2018-12-02T20:10:18.932Z,4.80
2018-12-02T20:12:47.407Z,5.40
2018-12-02T20:15:16.392Z,5.47
2018-12-02T20:17:44.736Z,5.87
2018-12-02T20:20:20.562Z,5.33
2018-12-02T20:22:48.677Z,5.75
2018-12-02T20:25:17.543Z,5.20
2018-12-02T20:27:45.756Z,5.53
2018-12-02T20:30:17.513Z,5.25
2018-12-02T20:32:45.612Z,6.00
2018-12-02T20:35:13.841Z,5.42
2018-12-02T20:37:42.000Z,5.85
2018-12-02T20:40:16.158Z,5.50
2018-12-02T20:42:44.931Z,5.45
2018-12-02T20:45:14.091Z,5.65
2018-12-02T20:47:42.269Z,5.95
2018-12-02T20:50:12.473Z,5.83
2018-12-02T20:52:40.643Z,5.92
2018-12-02T20:55:19.743Z,6.45
2018-12-02T20:57:48.346Z,6.03
2018-12-02T21:00:17.552Z,6.60
2018-12-02T21:02:51.427Z,7.28
2018-12-02T21:05:25.340Z,6.30
2018-12-02T21:07:53.519Z,7.80
2018-12-02T21:10:21.624Z,5.90
2018-12-02T21:12:49.731Z,5.73
2018-12-02T21:15:17.840Z,6.20
2018-12-02T21:17:46.660Z,6.20
2018-12-02T21:20:14.831Z,6.62
2018-12-02T21:22:42.931Z,7.70
2018-12-02T21:25:14.735Z,6.53
2018-12-02T21:27:42.959Z,5.95
2018-12-02T21:30:15.492Z,5.60
2018-12-02T21:32:43.630Z,5.67
2018-12-02T21:35:11.824Z,5.22
2018-12-02T21:37:39.997Z,4.53
2018-12-02T21:40:11.603Z,4.50
2018-12-02T21:42:39.772Z,4.28
2018-12-02T21:45:09.931Z,4.17
2018-12-02T21:47:38.844Z,4.15
2018-12-02T21:50:27.203Z,4.87
2018-12-02T21:52:55.866Z,2.70
2018-12-02T21:55:24.006Z,2.60
2018-12-02T21:57:52.564Z,3.08
2018-12-02T22:00:26.158Z,2.98
2018-12-02T22:02:54.510Z,3.40
2018-12-02T22:05:22.646Z,2.87
2018-12-02T22:07:51.474Z,3.85
2018-12-02T22:10:24.786Z,2.87
2018-12-02T22:12:53.118Z,2.65
2018-12-02T22:15:21.235Z,2.75
2018-12-02T22:17:49.428Z,3.62
2018-12-02T22:20:17.715Z,3.12
2018-12-02T22:22:45.831Z,3.40
2018-12-02T22:25:18.942Z,3.60
2018-12-02T22:27:48.276Z,4.58
2018-12-02T22:30:17.547Z,5.27
2018-12-02T22:32:45.691Z,5.95
2018-12-02T22:35:14.662Z,6.35
2018-12-02T22:37:43.254Z,6.85
2018-12-02T22:40:15.873Z,7.00
2018-12-02T22:42:43.967Z,8.08
2018-12-02T22:45:13.720Z,7.50
2018-12-02T22:47:41.852Z,7.80
2018-12-02T22:50:13.211Z,7.70
2018-12-02T22:52:41.495Z,8.70
2018-12-02T22:55:10.559Z,8.08
2018-12-02T22:57:38.906Z,8.28
2018-12-02T23:00:28.532Z,10.25
2018-12-02T23:03:09.704Z,8.80
2018-12-02T23:05:37.957Z,7.35
2018-12-02T23:08:06.436Z,8.93
2018-12-02T23:10:34.538Z,7.37
2018-12-02T23:13:02.614Z,6.30
2018-12-02T23:15:30.792Z,6.35
2018-12-02T23:17:58.882Z,6.83
2018-12-02T23:20:27.150Z,6.42
2018-12-02T23:22:55.248Z,7.00
2018-12-02T23:25:23.372Z,5.60
2018-12-02T23:27:51.526Z,4.90
2018-12-02T23:30:23.127Z,5.47
2018-12-02T23:32:51.306Z,4.05
2018-12-02T23:35:19.391Z,5.92
2018-12-02T23:37:47.510Z,4.70
2018-12-02T23:40:16.608Z,4.87
2018-12-02T23:42:44.780Z,4.80
2018-12-02T23:45:13.578Z,4.58
2018-12-02T23:47:41.718Z,5.85
2018-12-02T23:50:10.830Z,8.43
2018-12-02T23:52:38.956Z,14.53
2018-12-02T23:55:08.962Z,23.12
2018-12-02T23:57:37.111Z,12.43
